Time;durP1;ratioP1;P1;durP2;ratioP2;P2;SDS_P1;SDS_P2;PMS_P1;PMS_P2;Temp;Humidity;BMP_temperature;BMP_pressure;BME280_temperature;BME280_humidity;BME280_pressure;Samples;Min_cycle;Max_cycle;Signal;HPM_P1;HPM_P2
2021/03/10 00:00:24;;;;;;;33.45;20.30;;;4.20;93.40;;;;;;4983861;28;20027;-63
2021/03/10 00:02:50;;;;;;;34.70;19.88;;;4.20;93.40;;;;;;4985882;28;20110;-63
2021/03/10 00:05:16;;;;;;;34.13;19.88;;;4.20;93.40;;;;;;4989773;28;20114;-63
2021/03/10 00:07:42;;;;;;;33.83;21.50;;;4.20;93.50;;;;;;4981653;28;20076;-65
2021/03/10 00:10:09;;;;;;;34.40;19.85;;;4.20;93.40;;;;;;4982771;28;20031;-62
2021/03/10 00:12:35;;;;;;;34.72;19.55;;;4.20;93.30;;;;;;4986719;28;20039;-63
2021/03/10 00:15:03;;;;;;;29.38;18.27;;;4.20;93.40;;;;;;4980030;28;20089;-62
2021/03/10 00:17:29;;;;;;;33.65;19.10;;;4.20;93.50;;;;;;4982438;28;20162;-62
2021/03/10 00:19:54;;;;;;;33.10;19.25;;;4.20;93.10;;;;;;4984213;28;20492;-63
2021/03/10 00:22:20;;;;;;;34.35;20.05;;;4.20;92.70;;;;;;4985317;28;20042;-62
2021/03/10 00:24:46;;;;;;;32.35;19.35;;;4.20;92.80;;;;;;4987017;28;20476;-65
2021/03/10 00:27:23;;;;;;;30.77;19.13;;;4.10;93.00;;;;;;4986809;28;20097;-62
2021/03/10 00:29:53;;;;;;;33.63;21.20;;;4.10;93.50;;;;;;4983748;28;20396;-62
2021/03/10 00:32:20;;;;;;;35.30;20.50;;;4.10;93.90;;;;;;4984539;28;20125;-62
2021/03/10 00:34:46;;;;;;;34.72;20.58;;;4.10;94.00;;;;;;4983771;28;20525;-64
2021/03/10 00:37:13;;;;;;;31.88;19.55;;;4.10;94.40;;;;;;4987082;28;20491;-62
2021/03/10 00:39:39;;;;;;;33.88;19.90;;;4.10;94.50;;;;;;4990246;28;20085;-62
2021/03/10 00:42:05;;;;;;;34.95;19.80;;;4.10;94.70;;;;;;4989608;28;20190;-62
2021/03/10 00:44:30;;;;;;;37.30;20.73;;;4.00;95.20;;;;;;4986557;28;20493;-62
2021/03/10 00:46:56;;;;;;;38.67;22.00;;;4.00;95.40;;;;;;4987957;28;20110;-62
2021/03/10 00:49:22;;;;;;;38.30;22.85;;;4.00;95.90;;;;;;4987775;28;20033;-62
2021/03/10 00:51:47;;;;;;;36.40;20.92;;;4.00;96.60;;;;;;4988121;28;20396;-62
2021/03/10 00:54:13;;;;;;;37.00;22.00;;;4.00;96.80;;;;;;4989775;28;20033;-62
2021/03/10 00:56:39;;;;;;;39.03;23.10;;;3.90;97.00;;;;;;4980593;28;20023;-62
2021/03/10 00:59:04;;;;;;;36.67;21.95;;;4.00;97.60;;;;;;4989506;28;20065;-62
2021/03/10 01:01:30;;;;;;;39.28;23.42;;;3.90;97.70;;;;;;4990683;28;20031;-62
2021/03/10 01:03:55;;;;;;;41.22;24.05;;;3.90;97.80;;;;;;4989784;28;20121;-63
2021/03/10 01:06:24;;;;;;;41.78;24.70;;;3.90;98.20;;;;;;4969932;28;20489;-62
2021/03/10 01:08:53;;;;;;;42.83;23.80;;;3.90;98.40;;;;;;4983680;28;20109;-62
2021/03/10 01:11:19;;;;;;;44.83;25.80;;;3.90;98.50;;;;;;4988990;28;20058;-62
2021/03/10 01:13:45;;;;;;;43.95;25.92;;;4.00;99.10;;;;;;4987029;28;20080;-65
2021/03/10 01:16:11;;;;;;;54.63;26.85;;;3.90;99.30;;;;;;4984770;28;20030;-62
2021/03/10 01:18:38;;;;;;;49.15;25.45;;;4.00;99.40;;;;;;4986274;28;20034;-62
2021/03/10 01:21:04;;;;;;;43.72;25.33;;;3.90;99.40;;;;;;4981856;28;20037;-62
2021/03/10 01:23:29;;;;;;;48.05;26.92;;;4.00;99.60;;;;;;4985139;28;20383;-62
2021/03/10 01:25:55;;;;;;;48.67;27.60;;;3.90;99.80;;;;;;4988942;28;20034;-62
2021/03/10 01:28:21;;;;;;;47.60;26.58;;;3.90;99.90;;;;;;4988072;28;20023;-63
2021/03/10 01:30:46;;;;;;;47.55;26.85;;;3.90;99.90;;;;;;4986353;28;20038;-63
2021/03/10 01:33:12;;;;;;;42.00;24.27;;;3.90;99.90;;;;;;4986172;28;20089;-62
2021/03/10 01:35:38;;;;;;;44.53;26.23;;;3.90;99.90;;;;;;4971384;28;20066;-63
2021/03/10 01:38:04;;;;;;;42.47;23.70;;;3.90;99.90;;;;;;4990657;28;20015;-62
2021/03/10 01:40:30;;;;;;;43.72;25.73;;;3.90;99.90;;;;;;4986807;28;20361;-62
2021/03/10 01:43:02;;;;;;;48.10;25.30;;;3.90;99.90;;;;;;4969181;28;20042;-62
2021/03/10 01:45:27;;;;;;;45.05;25.73;;;3.80;99.90;;;;;;4983858;28;20027;-62
2021/03/10 01:47:53;;;;;;;44.33;25.05;;;3.80;99.90;;;;;;4987970;28;20042;-65
2021/03/10 01:50:19;;;;;;;48.42;27.13;;;3.80;99.90;;;;;;4983321;28;20050;-62
2021/03/10 01:52:46;;;;;;;53.28;27.23;;;3.80;99.90;;;;;;4986058;28;20030;-64
2021/03/10 01:55:12;;;;;;;45.55;25.70;;;3.80;99.90;;;;;;4987064;28;20153;-64
2021/03/10 01:57:39;;;;;;;44.22;25.52;;;3.80;99.90;;;;;;4987198;28;20042;-62
2021/03/10 02:00:08;;;;;;;46.63;26.13;;;3.80;99.90;;;;;;4986542;28;20030;-62
2021/03/10 02:02:33;;;;;;;45.97;25.90;;;3.80;99.90;;;;;;4986854;28;20034;-62
2021/03/10 02:05:00;;;;;;;50.15;27.20;;;3.80;99.90;;;;;;4966725;28;20041;-62
2021/03/10 02:07:38;;;;;;;52.10;28.30;;;3.80;99.90;;;;;;4974484;28;20153;-62
2021/03/10 02:10:25;;;;;;;49.05;27.02;;;3.80;99.90;;;;;;4972118;28;20075;-63
2021/03/10 02:13:06;;;;;;;50.88;28.60;;;3.80;99.90;;;;;;4972229;28;20502;-63
2021/03/10 02:15:43;;;;;;;46.83;26.48;;;3.80;99.90;;;;;;4972940;28;20031;-62
2021/03/10 02:18:14;;;;;;;50.38;27.48;;;3.80;99.90;;;;;;4972586;28;20082;-62
2021/03/10 02:20:43;;;;;;;54.30;28.90;;;3.70;99.90;;;;;;4973321;28;20023;-62
2021/03/10 02:23:33;;;;;;;49.67;28.50;;;3.70;99.90;;;;;;4972568;28;20035;-62
2021/03/10 02:26:24;;;;;;;51.15;28.40;;;3.60;99.90;;;;;;4975779;28;20030;-63
2021/03/10 02:28:51;;;;;;;;;;;3.60;99.90;;;;;;4982625;28;20031;-63
2021/03/10 02:31:17;;;;;;;48.15;26.83;;;3.60;99.90;;;;;;4988702;28;19960;-63
2021/03/10 02:33:45;;;;;;;53.78;28.75;;;3.50;99.90;;;;;;4988336;28;20042;-66
2021/03/10 02:36:13;;;;;;;53.83;29.35;;;3.50;99.90;;;;;;4986907;28;20034;-63
2021/03/10 02:38:45;;;;;;;50.95;29.48;;;3.50;99.90;;;;;;4984558;28;20109;-63
2021/03/10 02:41:12;;;;;;;49.72;26.83;;;3.60;99.90;;;;;;4984213;28;20089;-63
2021/03/10 02:43:39;;;;;;;52.65;27.75;;;3.60;99.90;;;;;;4987030;28;20704;-62
2021/03/10 02:46:05;;;;;;;52.72;28.40;;;3.60;99.90;;;;;;4988759;28;20029;-64
2021/03/10 02:48:33;;;;;;;52.40;27.58;;;3.60;99.90;;;;;;4985036;28;20034;-63
2021/03/10 02:50:59;;;;;;;52.90;28.55;;;3.60;99.90;;;;;;4984861;28;20491;-64
2021/03/10 02:53:25;;;;;;;54.67;29.73;;;3.60;99.90;;;;;;4985492;28;20031;-62
2021/03/10 02:55:52;;;;;;;51.85;28.98;;;3.60;99.90;;;;;;4983761;28;20030;-62
2021/03/10 02:58:17;;;;;;;54.80;29.95;;;3.70;99.90;;;;;;4987466;28;20034;-63
2021/03/10 03:00:43;;;;;;;58.13;29.98;;;3.70;99.90;;;;;;4982353;28;20023;-66
2021/03/10 03:03:09;;;;;;;52.13;29.10;;;3.70;99.90;;;;;;4988592;28;20034;-64
2021/03/10 03:05:35;;;;;;;52.67;29.60;;;3.70;99.90;;;;;;4985095;28;20030;-63
2021/03/10 03:08:02;;;;;;;55.95;30.30;;;3.70;99.90;;;;;;4983396;28;20034;-64
2021/03/10 03:10:40;;;;;;;52.45;29.65;;;3.70;99.90;;;;;;4985529;28;20023;-63
2021/03/10 03:13:11;;;;;;;54.28;29.00;;;3.80;99.90;;;;;;4981847;28;20627;-64
2021/03/10 03:15:41;;;;;;;52.30;30.00;;;3.80;99.90;;;;;;4988834;28;20026;-63
2021/03/10 03:18:07;;;;;;;52.67;28.80;;;3.80;99.90;;;;;;4987341;28;20819;-63
2021/03/10 03:20:33;;;;;;;53.72;29.00;;;3.90;99.90;;;;;;4987100;28;20049;-63
2021/03/10 03:23:03;;;;;;;56.90;30.73;;;3.90;99.90;;;;;;4985743;28;20026;-64
2021/03/10 03:25:32;;;;;;;53.33;29.55;;;3.90;99.90;;;;;;4965193;28;20109;-64
2021/03/10 03:28:00;;;;;;;52.72;28.08;;;3.90;99.90;;;;;;4987741;28;20356;-63
2021/03/10 03:30:31;;;;;;;54.70;31.10;;;3.90;99.90;;;;;;4989622;28;20034;-63
2021/03/10 03:32:59;;;;;;;56.45;30.33;;;3.90;99.90;;;;;;4987257;28;20046;-63
2021/03/10 03:35:25;;;;;;;55.72;29.92;;;3.80;99.90;;;;;;4990844;28;20027;-63
2021/03/10 03:37:52;;;;;;;56.28;30.35;;;3.80;99.90;;;;;;4988041;28;20510;-64
2021/03/10 03:40:20;;;;;;;54.75;30.10;;;3.90;99.90;;;;;;4993479;28;20046;-63
2021/03/10 03:42:46;;;;;;;56.10;30.35;;;3.90;99.90;;;;;;4984019;28;20034;-66
2021/03/10 03:45:15;;;;;;;54.42;29.55;;;3.90;99.90;;;;;;4986637;28;20026;-63
2021/03/10 03:47:41;;;;;;;57.83;31.00;;;3.80;99.90;;;;;;4970371;28;20496;-64
2021/03/10 03:50:12;;;;;;;56.33;30.17;;;3.80;99.90;;;;;;4987679;28;20145;-64
2021/03/10 03:52:42;;;;;;;65.53;32.58;;;3.80;99.90;;;;;;4974433;28;20031;-64
2021/03/10 03:55:09;;;;;;;60.88;31.17;;;3.70;99.90;;;;;;4990503;28;20041;-64
2021/03/10 03:57:35;;;;;;;58.10;32.05;;;3.70;99.90;;;;;;4985868;28;20039;-64
2021/03/10 04:00:02;;;;;;;54.05;30.17;;;3.60;99.90;;;;;;4970826;28;20057;-64
2021/03/10 04:02:28;;;;;;;60.50;32.45;;;3.60;99.90;;;;;;4988256;28;20097;-63
2021/03/10 04:04:53;;;;;;;60.65;31.45;;;3.60;99.90;;;;;;4990047;28;20085;-63
2021/03/10 04:07:19;;;;;;;58.70;30.95;;;3.60;99.90;;;;;;4989717;28;20057;-64
2021/03/10 04:09:45;;;;;;;56.28;31.33;;;3.60;99.90;;;;;;4989421;28;20076;-65
2021/03/10 04:12:10;;;;;;;61.17;31.58;;;3.60;99.90;;;;;;4986368;28;20381;-63
2021/03/10 04:14:36;;;;;;;59.00;30.52;;;3.50;99.90;;;;;;4987137;28;20361;-63
2021/03/10 04:17:02;;;;;;;55.20;30.45;;;3.60;99.90;;;;;;4970574;28;20057;-63
2021/03/10 04:19:27;;;;;;;59.92;32.05;;;3.50;99.90;;;;;;4989382;28;20060;-63
2021/03/10 04:21:53;;;;;;;55.25;30.70;;;3.60;99.90;;;;;;4987634;28;20034;-63
2021/03/10 04:24:19;;;;;;;55.85;30.90;;;3.60;99.90;;;;;;4985154;28;20081;-63
2021/03/10 04:26:47;;;;;;;58.58;31.58;;;3.50;99.90;;;;;;4985775;28;20018;-66
2021/03/10 04:29:13;;;;;;;58.63;32.47;;;3.50;99.90;;;;;;4989316;28;20030;-63
2021/03/10 04:31:38;;;;;;;60.03;31.77;;;3.50;99.90;;;;;;5003825;28;20030;-63
2021/03/10 04:34:04;;;;;;;58.88;31.77;;;3.50;99.90;;;;;;4989251;28;20590;-63
2021/03/10 04:36:29;;;;;;;58.95;31.73;;;3.50;99.90;;;;;;4981295;28;20464;-62
2021/03/10 04:38:55;;;;;;;58.92;31.65;;;3.50;99.90;;;;;;4988287;28;20085;-63
2021/03/10 04:41:21;;;;;;;59.55;31.70;;;3.50;99.90;;;;;;4982834;28;20514;-65
2021/03/10 04:43:46;;;;;;;60.25;32.53;;;3.50;99.90;;;;;;4987132;28;20038;-66
2021/03/10 04:46:12;;;;;;;57.03;31.95;;;3.50;99.90;;;;;;4984613;28;20411;-63
2021/03/10 04:48:38;;;;;;;63.28;33.38;;;3.50;99.90;;;;;;4984364;28;20058;-64
2021/03/10 04:51:04;;;;;;;60.65;32.50;;;3.50;99.90;;;;;;4968852;28;20038;-63
2021/03/10 04:53:29;;;;;;;60.92;31.65;;;3.50;99.90;;;;;;4982923;28;20499;-64
2021/03/10 04:55:55;;;;;;;64.65;33.28;;;3.50;99.90;;;;;;4983788;28;20521;-63
2021/03/10 04:58:21;;;;;;;56.60;31.50;;;3.50;99.90;;;;;;4984763;28;20061;-63
2021/03/10 05:00:46;;;;;;;60.72;32.30;;;3.50;99.90;;;;;;4983841;28;20034;-66
2021/03/10 05:03:12;;;;;;;62.63;34.03;;;3.50;99.90;;;;;;5001740;28;20080;-63
2021/03/10 05:05:38;;;;;;;62.03;34.05;;;3.50;99.90;;;;;;4983630;28;20058;-63
2021/03/10 05:08:03;;;;;;;62.88;33.97;;;3.50;99.90;;;;;;4983768;28;20031;-69
2021/03/10 05:10:29;;;;;;;64.13;32.85;;;3.50;99.90;;;;;;4985477;28;20034;-64
2021/03/10 05:12:55;;;;;;;67.80;34.22;;;3.50;99.90;;;;;;4972800;28;20436;-63
2021/03/10 05:15:21;;;;;;;62.45;33.00;;;3.50;99.90;;;;;;4980122;28;20464;-63
2021/03/10 05:17:46;;;;;;;57.83;31.63;;;3.50;99.90;;;;;;4984326;28;20108;-66
2021/03/10 05:20:12;;;;;;;59.50;32.28;;;3.50;99.90;;;;;;4982788;28;20472;-64
2021/03/10 05:22:39;;;;;;;62.03;32.75;;;3.50;99.90;;;;;;4986514;28;20078;-63
2021/03/10 05:25:07;;;;;;;65.65;34.10;;;3.50;99.90;;;;;;4983138;28;20029;-63
2021/03/10 05:27:33;;;;;;;67.03;33.53;;;3.50;99.90;;;;;;4981595;28;20062;-63
2021/03/10 05:29:59;;;;;;;60.90;32.28;;;3.50;99.90;;;;;;4982036;28;20476;-63
2021/03/10 05:32:25;;;;;;;58.58;32.20;;;3.50;99.90;;;;;;4982920;28;20030;-63
2021/03/10 05:34:51;;;;;;;60.42;33.22;;;3.50;99.90;;;;;;4984080;28;20042;-63
2021/03/10 05:37:17;;;;;;;56.88;31.23;;;3.60;99.90;;;;;;4984478;28;20038;-63
2021/03/10 05:39:42;;;;;;;62.95;34.55;;;3.60;99.90;;;;;;4992897;28;20129;-63
2021/03/10 05:42:09;;;;;;;61.33;32.70;;;3.60;99.90;;;;;;4998841;28;20080;-63
2021/03/10 05:44:35;;;;;;;59.28;32.17;;;3.60;99.90;;;;;;5001393;28;20076;-63
2021/03/10 05:47:01;;;;;;;63.05;33.22;;;3.60;99.90;;;;;;5001561;28;20034;-63
2021/03/10 05:49:27;;;;;;;60.03;32.22;;;3.60;99.90;;;;;;5000286;28;20034;-63
2021/03/10 05:51:52;;;;;;;61.50;33.45;;;3.60;99.90;;;;;;4999591;28;20042;-63
2021/03/10 05:54:22;;;;;;;61.30;31.23;;;3.60;99.90;;;;;;4996028;28;20038;-63
2021/03/10 05:56:49;;;;;;;59.22;31.98;;;3.60;99.90;;;;;;4992182;28;20038;-65
2021/03/10 05:59:14;;;;;;;56.33;30.58;;;3.70;99.90;;;;;;4997152;28;20373;-63
2021/03/10 06:01:40;;;;;;;58.13;31.77;;;3.70;99.90;;;;;;4992412;28;20077;-62
2021/03/10 06:04:07;;;;;;;60.20;31.00;;;3.70;99.90;;;;;;4991588;28;20081;-62
2021/03/10 06:06:37;;;;;;;59.95;31.08;;;3.70;99.90;;;;;;4996570;28;20022;-63
2021/03/10 06:09:18;;;;;;;53.92;30.52;;;3.80;99.90;;;;;;4992442;28;20034;-63
2021/03/10 06:12:10;;;;;;;54.20;30.40;;;3.80;99.90;;;;;;4992571;28;20033;-63
2021/03/10 06:14:36;;;;;;;58.67;30.40;;;3.80;99.90;;;;;;4988385;28;20062;-63
2021/03/10 06:17:11;;;;;;;59.08;31.70;;;3.80;99.90;;;;;;4992205;28;20069;-63
2021/03/10 06:19:44;;;;;;;56.97;31.30;;;3.80;99.90;;;;;;4992861;28;20490;-62
2021/03/10 06:22:11;;;;;;;54.65;29.98;;;3.90;99.90;;;;;;4992112;28;20085;-65
2021/03/10 06:24:36;;;;;;;56.70;30.65;;;3.90;99.90;;;;;;4975402;28;20030;-62
2021/03/10 06:27:02;;;;;;;57.30;31.20;;;3.90;99.90;;;;;;4991542;28;20476;-62
2021/03/10 06:29:28;;;;;;;60.33;31.85;;;4.00;99.70;;;;;;4992356;28;20533;-62
2021/03/10 06:32:08;;;;;;;55.60;30.17;;;4.00;99.50;;;;;;4991530;28;20049;-63
2021/03/10 06:34:44;;;;;;;53.80;29.55;;;4.10;98.90;;;;;;4974563;28;20057;-62
2021/03/10 06:37:11;;;;;;;54.28;30.27;;;4.10;98.70;;;;;;4997493;28;20045;-63
2021/03/10 06:39:37;;;;;;;49.85;28.10;;;4.20;98.50;;;;;;4991926;28;20042;-62
2021/03/10 06:42:13;;;;;;;53.15;29.90;;;4.20;98.60;;;;;;4991329;28;20050;-63
2021/03/10 06:44:51;;;;;;;54.80;30.20;;;4.30;98.40;;;;;;4992055;28;20037;-63
2021/03/10 06:47:18;;;;;;;51.92;29.58;;;4.30;97.50;;;;;;4992236;28;20073;-63
2021/03/10 06:49:54;;;;;;;55.70;30.27;;;4.40;96.90;;;;;;4991946;28;20026;-62
2021/03/10 06:52:20;;;;;;;50.35;28.73;;;4.50;96.30;;;;;;4991739;28;20117;-62
2021/03/10 06:54:57;;;;;;;55.20;29.77;;;4.50;96.20;;;;;;4973743;28;20118;-63
2021/03/10 06:57:23;;;;;;;52.20;28.30;;;4.50;95.90;;;;;;4991060;28;20026;-62
2021/03/10 06:59:51;;;;;;;53.38;29.02;;;4.60;95.60;;;;;;4990879;28;20049;-65
2021/03/10 07:02:27;;;;;;;50.25;28.48;;;4.60;95.40;;;;;;4991554;28;20141;-63
2021/03/10 07:04:57;;;;;;;48.75;27.25;;;4.60;94.90;;;;;;4991193;28;20069;-63
2021/03/10 07:07:24;;;;;;;;;;;4.60;95.40;;;;;;4992332;28;20128;-63
2021/03/10 07:09:50;;;;;;;54.17;29.52;;;4.60;95.90;;;;;;4990615;28;19924;-64
2021/03/10 07:12:17;;;;;;;53.53;29.30;;;4.60;96.50;;;;;;4991928;28;20476;-61
2021/03/10 07:14:44;;;;;;;53.75;30.15;;;4.60;96.40;;;;;;4991375;28;20428;-61
2021/03/10 07:17:11;;;;;;;58.15;31.88;;;4.60;95.90;;;;;;4990976;28;20049;-61
2021/03/10 07:19:37;;;;;;;52.55;29.45;;;4.60;96.10;;;;;;4998149;28;20023;-62
2021/03/10 07:22:24;;;;;;;49.28;28.17;;;4.60;95.90;;;;;;4973203;28;20085;-62
2021/03/10 07:24:56;;;;;;;52.90;28.52;;;4.70;96.00;;;;;;4973043;28;20065;-64
2021/03/10 07:27:23;;;;;;;58.45;31.50;;;4.70;95.90;;;;;;4990458;28;20160;-62
2021/03/10 07:29:57;;;;;;;52.50;29.60;;;4.80;95.10;;;;;;4990943;28;20040;-65
2021/03/10 07:32:24;;;;;;;57.60;30.25;;;4.90;94.80;;;;;;4991690;28;20061;-63
2021/03/10 07:35:19;;;;;;;50.92;29.15;;;5.00;94.30;;;;;;4990285;28;20037;-66
2021/03/10 07:37:54;;;;;;;55.20;29.27;;;5.00;94.00;;;;;;4970782;28;20050;-61
2021/03/10 07:40:20;;;;;;;45.70;27.23;;;5.10;94.80;;;;;;4975424;28;20047;-62
2021/03/10 07:42:55;;;;;;;47.40;27.52;;;5.20;95.10;;;;;;4975928;28;20113;-63
2021/03/10 07:45:26;;;;;;;51.35;29.02;;;5.30;93.10;;;;;;4982416;28;20049;-63
2021/03/10 07:47:57;;;;;;;51.08;29.02;;;5.40;92.50;;;;;;4986746;28;20468;-65
2021/03/10 07:50:42;;;;;;;48.17;29.45;;;5.50;91.70;;;;;;4983559;28;20611;-63
2021/03/10 07:53:08;;;;;;;49.15;29.67;;;5.60;90.90;;;;;;4967236;28;20030;-63
2021/03/10 07:55:48;;;;;;;46.22;27.40;;;5.70;90.40;;;;;;4976426;28;20039;-63
2021/03/10 07:58:28;;;;;;;47.67;27.85;;;5.70;90.20;;;;;;4977863;28;20162;-63
2021/03/10 08:00:55;;;;;;;52.92;29.42;;;5.70;90.10;;;;;;4954804;28;20034;-63
2021/03/10 08:03:33;;;;;;;56.42;29.20;;;5.70;88.80;;;;;;4981701;28;20371;-62
2021/03/10 08:06:04;;;;;;;48.38;28.27;;;5.70;88.70;;;;;;4988212;28;20034;-63
2021/03/10 08:08:38;;;;;;;48.35;28.33;;;5.70;88.70;;;;;;4972967;28;20030;-63
2021/03/10 08:11:14;;;;;;;55.88;29.27;;;5.80;88.20;;;;;;4979043;28;20117;-62
2021/03/10 08:13:41;;;;;;;54.72;29.65;;;5.80;88.20;;;;;;4977727;28;20030;-63
2021/03/10 08:16:09;;;;;;;50.22;29.30;;;5.90;88.00;;;;;;4991015;28;20053;-63
2021/03/10 08:18:36;;;;;;;44.65;27.25;;;5.90;87.50;;;;;;4975915;28;20031;-63
2021/03/10 08:21:18;;;;;;;49.05;29.58;;;6.00;87.40;;;;;;4975413;28;20046;-62
2021/03/10 08:23:45;;;;;;;45.90;28.13;;;6.10;86.30;;;;;;4975896;28;20041;-62
2021/03/10 08:26:11;;;;;;;51.22;29.08;;;6.20;85.80;;;;;;4958983;28;20035;-63
2021/03/10 08:28:40;;;;;;;44.85;27.55;;;6.30;84.90;;;;;;4985718;28;20520;-61
2021/03/10 08:31:08;;;;;;;48.10;28.88;;;6.40;84.00;;;;;;4957149;28;20062;-61
2021/03/10 08:33:48;;;;;;;46.53;26.67;;;6.60;82.30;;;;;;4991961;28;20046;-62
2021/03/10 08:36:15;;;;;;;52.63;28.13;;;6.70;82.20;;;;;;4974519;28;20240;-62
2021/03/10 08:38:41;;;;;;;53.55;28.83;;;6.80;82.80;;;;;;4980152;28;20023;-63
2021/03/10 08:41:08;;;;;;;46.85;27.23;;;6.90;81.60;;;;;;4984422;28;20111;-61
2021/03/10 08:43:34;;;;;;;49.08;28.05;;;6.90;81.00;;;;;;4997683;28;20117;-65
2021/03/10 08:46:00;;;;;;;47.55;27.20;;;7.00;80.60;;;;;;4985061;28;20038;-62
2021/03/10 08:48:34;;;;;;;45.55;27.33;;;7.10;80.40;;;;;;4992451;28;20027;-62
2021/03/10 08:51:04;;;;;;;43.92;26.55;;;7.30;79.70;;;;;;4992868;28;20049;-62
2021/03/10 08:53:30;;;;;;;45.28;26.50;;;7.40;78.80;;;;;;4977844;28;20044;-61
2021/03/10 08:56:06;;;;;;;40.35;24.67;;;7.60;77.90;;;;;;4993299;28;20495;-62
2021/03/10 08:58:32;;;;;;;48.72;26.73;;;7.70;78.20;;;;;;4984601;28;20419;-63
2021/03/10 09:00:57;;;;;;;40.78;25.42;;;7.90;77.50;;;;;;4991775;28;20039;-63
2021/03/10 09:03:23;;;;;;;43.63;25.13;;;8.00;77.30;;;;;;4989163;28;20034;-63
2021/03/10 09:05:50;;;;;;;48.47;26.30;;;8.10;76.00;;;;;;4975395;28;20038;-63
2021/03/10 09:08:22;;;;;;;44.15;25.08;;;8.20;75.80;;;;;;4981808;28;20037;-62
2021/03/10 09:10:53;;;;;;;38.85;24.60;;;8.30;75.50;;;;;;4982536;28;20018;-62
2021/03/10 09:13:20;;;;;;;39.03;24.20;;;8.40;74.30;;;;;;4990581;28;20035;-62
2021/03/10 09:15:46;;;;;;;38.03;24.35;;;8.50;73.60;;;;;;4975744;28;20035;-62
2021/03/10 09:18:12;;;;;;;37.65;23.50;;;8.60;73.20;;;;;;4988980;28;20608;-63
2021/03/10 09:20:42;;;;;;;39.80;24.48;;;8.70;72.90;;;;;;4985697;28;20155;-62
2021/03/10 09:23:09;;;;;;;44.08;24.88;;;8.70;72.60;;;;;;4982010;28;20058;-62
2021/03/10 09:25:40;;;;;;;39.25;24.52;;;8.80;72.30;;;;;;4975224;28;20053;-63
2021/03/10 09:28:12;;;;;;;40.83;23.85;;;8.90;72.00;;;;;;4973513;28;20027;-63
2021/03/10 09:30:48;;;;;;;40.83;24.83;;;9.00;71.60;;;;;;4988218;28;20023;-63
2021/03/10 09:33:22;;;;;;;38.28;23.02;;;9.00;71.80;;;;;;4991131;28;20077;-62
2021/03/10 09:35:53;;;;;;;40.05;22.35;;;9.10;69.70;;;;;;4991661;28;20038;-62
2021/03/10 09:38:20;;;;;;;36.30;20.70;;;9.00;70.00;;;;;;4991831;28;20076;-63
2021/03/10 09:40:57;;;;;;;35.55;22.40;;;9.00;69.00;;;;;;4980268;28;20472;-62
2021/03/10 09:43:25;;;;;;;36.78;22.38;;;9.00;68.80;;;;;;4967317;28;20054;-63
2021/03/10 09:45:56;;;;;;;36.50;22.52;;;8.90;69.80;;;;;;4980094;28;20031;-65
2021/03/10 09:48:37;;;;;;;33.22;21.80;;;8.90;69.70;;;;;;4979715;28;20030;-63
2021/03/10 09:51:10;;;;;;;32.72;21.23;;;8.70;69.50;;;;;;4987722;28;20030;-63
2021/03/10 09:53:50;;;;;;;37.42;20.98;;;8.70;69.90;;;;;;4975802;28;20043;-62
2021/03/10 09:56:19;;;;;;;38.22;19.80;;;8.70;67.80;;;;;;4990800;28;20038;-62
2021/03/10 09:58:55;;;;;;;37.28;20.27;;;8.70;68.20;;;;;;4990867;28;20594;-63
2021/03/10 10:01:26;;;;;;;30.77;18.35;;;8.50;67.50;;;;;;4989048;28;20104;-63
2021/03/10 10:03:52;;;;;;;26.25;16.95;;;8.40;66.60;;;;;;4990360;28;20034;-64
2021/03/10 10:06:20;;;;;;;29.65;16.70;;;8.40;67.50;;;;;;4984895;28;20064;-63
2021/03/10 10:08:46;;;;;;;25.02;16.00;;;8.30;66.20;;;;;;4976464;28;20461;-62
2021/03/10 10:11:13;;;;;;;27.13;16.58;;;8.30;65.50;;;;;;4972864;28;20788;-66
2021/03/10 10:13:46;;;;;;;26.38;15.98;;;8.30;65.30;;;;;;4991571;28;20034;-64
2021/03/10 10:16:12;;;;;;;26.48;16.30;;;8.30;65.70;;;;;;4974050;28;20031;-63
2021/03/10 10:18:38;;;;;;;29.20;16.30;;;8.40;65.00;;;;;;4990405;28;20130;-64
2021/03/10 10:21:04;;;;;;;31.73;18.67;;;8.50;65.40;;;;;;4977813;28;20460;-66
2021/03/10 10:23:30;;;;;;;28.77;18.10;;;8.60;65.90;;;;;;4971231;28;20031;-63
2021/03/10 10:25:56;;;;;;;30.50;18.02;;;8.70;65.60;;;;;;4975953;28;20069;-62
2021/03/10 10:28:22;;;;;;;26.77;16.08;;;8.90;65.10;;;;;;4973307;28;20062;-61
2021/03/10 10:30:48;;;;;;;25.80;16.20;;;8.90;64.20;;;;;;4986716;28;20041;-62
2021/03/10 10:33:14;;;;;;;30.02;18.70;;;9.00;64.10;;;;;;4989108;28;20057;-62
2021/03/10 10:35:40;;;;;;;29.08;17.13;;;9.00;64.60;;;;;;4971590;28;20031;-62
2021/03/10 10:38:08;;;;;;;29.40;17.58;;;9.20;64.90;;;;;;4974987;28;20039;-62
2021/03/10 10:40:34;;;;;;;23.27;12.38;;;9.40;63.60;;;;;;4989801;28;20046;-62
2021/03/10 10:43:00;;;;;;;19.92;11.95;;;9.60;59.40;;;;;;4990785;28;20037;-63
2021/03/10 10:45:26;;;;;;;15.68;9.45;;;9.70;58.60;;;;;;4991927;28;20018;-62
2021/03/10 10:47:51;;;;;;;18.52;10.68;;;9.80;56.80;;;;;;4973879;28;20058;-62
2021/03/10 10:50:17;;;;;;;18.75;11.73;;;9.90;57.50;;;;;;4991612;28;20037;-62
2021/03/10 10:52:44;;;;;;;20.35;10.77;;;9.90;57.60;;;;;;4991821;28;20038;-62
2021/03/10 10:55:13;;;;;;;12.48;7.38;;;9.90;58.40;;;;;;4990432;28;20034;-62
2021/03/10 10:57:39;;;;;;;18.77;8.63;;;10.00;53.60;;;;;;4974672;28;20026;-62
2021/03/10 11:00:09;;;;;;;14.30;7.18;;;10.00;54.20;;;;;;4990594;28;20415;-62
2021/03/10 11:02:35;;;;;;;10.27;6.13;;;10.00;53.20;;;;;;4992063;28;20446;-62
2021/03/10 11:05:00;;;;;;;10.77;5.57;;;9.90;51.90;;;;;;4991120;28;20039;-62
2021/03/10 11:07:26;;;;;;;12.20;6.40;;;9.90;53.30;;;;;;4993505;28;20034;-62
2021/03/10 11:09:52;;;;;;;9.88;6.25;;;9.90;53.00;;;;;;4997273;28;20531;-62
2021/03/10 11:12:17;;;;;;;10.25;6.45;;;9.90;52.30;;;;;;4969293;28;20026;-62
2021/03/10 11:14:43;;;;;;;8.05;5.70;;;10.00;52.70;;;;;;5001641;28;20506;-62
2021/03/10 11:17:09;;;;;;;7.65;5.03;;;10.00;51.70;;;;;;4973519;28;20030;-62
2021/03/10 11:19:35;;;;;;;9.77;4.57;;;9.90;50.90;;;;;;4991530;28;20031;-62
2021/03/10 11:22:04;;;;;;;6.60;4.22;;;9.80;50.90;;;;;;4990483;28;20468;-62
2021/03/10 11:24:29;;;;;;;7.78;4.45;;;9.70;49.50;;;;;;4969178;28;20030;-63
2021/03/10 11:26:55;;;;;;;6.22;4.38;;;9.70;50.00;;;;;;4990859;28;20497;-65
2021/03/10 11:29:21;;;;;;;7.72;3.80;;;9.80;50.30;;;;;;4992185;28;20064;-62
2021/03/10 11:31:47;;;;;;;5.38;3.88;;;9.80;49.60;;;;;;4991025;28;20534;-62
2021/03/10 11:34:13;;;;;;;7.80;4.35;;;9.80;49.20;;;;;;4991063;28;20038;-61
2021/03/10 11:36:39;;;;;;;9.25;5.57;;;9.90;49.40;;;;;;4991378;28;20026;-62
2021/03/10 11:39:05;;;;;;;6.97;4.88;;;9.90;49.70;;;;;;4989570;28;20050;-63
2021/03/10 11:41:34;;;;;;;8.75;5.07;;;10.10;48.70;;;;;;4972265;28;20434;-62
2021/03/10 11:44:00;;;;;;;8.93;5.65;;;10.10;49.20;;;;;;4971453;28;20126;-64
2021/03/10 11:46:26;;;;;;;10.40;6.30;;;10.30;49.90;;;;;;4983895;28;20105;-62
2021/03/10 11:48:52;;;;;;;9.25;5.65;;;10.40;49.10;;;;;;4984804;28;20113;-63
2021/03/10 11:51:17;;;;;;;9.57;5.13;;;10.30;49.90;;;;;;4979552;28;20275;-62
2021/03/10 11:53:43;;;;;;;8.35;5.45;;;10.40;49.60;;;;;;4994771;28;20504;-64
2021/03/10 11:56:09;;;;;;;13.82;5.25;;;10.50;50.10;;;;;;4975269;28;20062;-62
2021/03/10 11:58:34;;;;;;;10.20;5.45;;;10.50;48.20;;;;;;4976141;28;20539;-61
2021/03/10 12:01:00;;;;;;;8.70;5.10;;;10.40;48.50;;;;;;4975932;28;20551;-64
2021/03/10 12:03:25;;;;;;;11.95;5.57;;;10.40;49.20;;;;;;4984097;28;20035;-61
2021/03/10 12:05:51;;;;;;;11.73;5.25;;;10.40;48.80;;;;;;4959790;28;20039;-62
2021/03/10 12:08:17;;;;;;;12.60;6.68;;;10.50;48.90;;;;;;4982658;28;20035;-62
2021/03/10 12:10:42;;;;;;;18.33;6.65;;;10.50;48.70;;;;;;4986266;28;20026;-63
2021/03/10 12:13:09;;;;;;;9.85;6.10;;;10.50;48.90;;;;;;4985014;28;20046;-63
2021/03/10 12:15:36;;;;;;;12.88;6.32;;;10.50;48.90;;;;;;4994271;28;20038;-62
2021/03/10 12:18:02;;;;;;;24.48;7.70;;;10.50;48.90;;;;;;4992613;28;20037;-63
2021/03/10 12:20:28;;;;;;;13.93;6.65;;;10.60;49.20;;;;;;4991223;28;20101;-62
2021/03/10 12:22:54;;;;;;;9.00;6.03;;;10.70;49.20;;;;;;4977134;28;20060;-62
2021/03/10 12:25:19;;;;;;;8.48;5.80;;;10.80;48.50;;;;;;4984043;28;20211;-63
2021/03/10 12:27:45;;;;;;;7.65;5.13;;;10.90;47.90;;;;;;4976318;28;20377;-63
2021/03/10 12:30:11;;;;;;;12.35;6.63;;;11.00;47.00;;;;;;4974577;28;20026;-63
2021/03/10 12:32:38;;;;;;;8.52;5.15;;;11.00;46.60;;;;;;4980629;28;20042;-62
2021/03/10 12:35:04;;;;;;;7.40;5.32;;;11.00;48.40;;;;;;4975554;28;20042;-63
2021/03/10 12:37:30;;;;;;;9.40;5.55;;;10.90;47.40;;;;;;4980785;28;20038;-63
2021/03/10 12:39:57;;;;;;;8.02;4.78;;;10.90;46.80;;;;;;4982288;28;20050;-62
2021/03/10 12:42:23;;;;;;;12.75;5.00;;;10.90;46.90;;;;;;4991047;28;20026;-62